Flight Track Log - Related Links

Times and Time Zones

All times are in EDT time to prevent confusion due to time zone crossing. See the N900TG flight status page for this flight to view local times or setup timezone preferences in your user account.


Time Position Orientation Groundspeed Altitude Reporting Facility
EDT Latitude Longitude Course Direction KTS MPH feet Rate Location/Type
Fri 04:42:15 PM 39.6219 -119.7836 357° North 10,900  Level FlightAware ADS-B
Fri 04:43:27 PM 39.7138 -119.7905 349° North 350 403 21,100 8,519 Climbing FlightAware ADS-B
Fri 04:43:36 PM 39.7343 -119.8070 328° Northwest 334 384 22,400 -2,250 Climbing FlightAware ADS-B
Fri 04:44:39 PM 39.8176 -119.8723 330° Northwest 324 373 18,400 -44 Descending FlightAware ADS-B
Fri 04:45:51 PM 39.9176 -119.9487 330° Northwest 349 402 22,300 3,118 Climbing FlightAware ADS-B
Fri 04:46:21 PM 39.9629 -119.9844 329° Northwest 300 345 23,700 18,659 Climbing FlightAware ADS-B
Fri 04:47:13 PM 40.0211 -120.0286 330° Northwest 311 358 47,800 17,634 Climbing FlightAware ADS-B
Fri 04:47:43 PM 40.0789 -120.0735 329° Northwest 361 415 47,800 -18,290 Level FlightAware ADS-B
Fri 04:48:15 PM 40.1241 -120.1085 329° Northwest 320 368 28,900 100 Descending FlightAware ADS-B
Fri 04:49:43 PM 40.2673 -120.2183 330° Northwest 418 481 48,000 1,969 Climbing FlightAware ADS-B
Fri 04:50:23 PM 40.3225 -120.2515 335° Northwest 418 481 33,100 -7,585 Descending FlightAware ADS-B
Fri 04:51:29 PM 40.4501 -120.3115 340° North 406 467 34,600 1,240 Climbing FlightAware ADS-B
Fri 04:56:50 PM 41.0539 -120.5989 340° North 419 482 41,100 1,108 Climbing FlightAware ADS-B
Fri 04:57:21 PM 41.1162 -120.6289 340° North 403 464 41,100  Level FlightAware ADS-B
Fri 05:00:51 PM 41.5336 -120.8317 340° North 302 348 41,100 -264 Level FlightAware ADS-B (KPFC)
Fri 05:01:31 PM 41.6008 -120.8656 340° North 451 519 40,000 -653 Descending Seattle Center
Fri 05:02:32 PM 41.7192 -120.9231 340° North 452 520 40,000  Level Seattle Center
Fri 05:03:33 PM 41.8369 -120.9822 339° North 454 522 40,000  Level Seattle Center
Fri 05:04:34 PM 41.9547 -121.0403 340° North 455 524 40,000  Level Seattle Center
Fri 05:05:36 PM 42.0744 -121.0997 340° North 458 527 40,000  Level Seattle Center
Fri 05:06:37 PM 42.2161 -121.1717 339° North 458 527 40,000  Level Seattle Center
Fri 05:07:38 PM 42.3358 -121.2283 341° North 457 526 40,000  Level Seattle Center
Fri 05:08:39 PM 42.4553 -121.2894 339° North 460 529 40,000 76 Level Seattle Center
Fri 05:14:14 PM 43.1377 -121.6379 340° North 302 348 40,500 -64 Climbing FlightAware ADS-B (KPFC)
Fri 05:14:55 PM 43.2158 -121.6784 340° North 302 348 39,600 -1,304 Descending FlightAware ADS-B (KPFC)
Fri 05:15:00 PM 43.2259 -121.6835 340° North 302 348 39,500 -1,857 Descending FlightAware ADS-B (KPFC)
Fri 05:15:37 PM 43.3022 -121.7232 340° North 302 348 38,300 -2,299 Descending FlightAware ADS-B (KPFC)
Fri 05:16:08 PM 43.2259 -121.6835 159° South 36,000 -2,400 Descending FlightAware ADS-B
Fri 05:17:47 PM 43.5654 -121.8607 339° North 523 602 33,100 -2,196 Descending FlightAware ADS-B (KPFC)
Fri 05:19:52 PM 43.8189 -121.9942 339° North 794 914 27,800 -2,535 Descending FlightAware ADS-B (KPFC)
Fri 05:22:31 PM 44.0624 -122.1238 339° North 431 496 21,100 -2,086 Descending FlightAware ADS-B
Fri 05:24:31 PM 44.3526 -122.2797 339° North 539 620 18,100 -1,533 Descending FlightAware ADS-B
Fri 05:25:31 PM 44.4629 -122.3392 339° North 381 438 16,500 -1,576 Descending FlightAware ADS-B
Fri 05:26:10 PM 44.5320 -122.3764 339° North 413 475 15,500 -1,475 Descending FlightAware ADS-B (KPFC)
Fri 05:26:32 PM 44.5705 -122.3973 339° North 463 533 15,000 -1,770 Descending FlightAware ADS-B
Fri 05:27:11 PM 44.6361 -122.4328 339° North 412 474 13,700 -1,350 Descending FlightAware ADS-B
Fri 05:28:32 PM 44.7566 -122.4984 339° North 386 444 12,300 -1,289 Descending FlightAware ADS-B
Fri 05:29:12 PM 44.8353 -122.5416 339° North 294 338 11,100 -1,500 Descending FlightAware ADS-B
Fri 05:29:32 PM 44.8480 -122.5486 159° South 305 351 10,800 -1,200 Descending FlightAware ADS-B
Fri 05:29:47 PM 44.8839 -122.5685 339° North 380 437 10,400 -1,714 Descending FlightAware ADS-B (KPFC)
Fri 05:30:07 PM 44.9109 -122.5834 339° North 380 437 9,800 -2,318 Descending FlightAware ADS-B (KPFC)
Fri 05:30:31 PM 44.9427 -122.6010 339° North 414 476 8,700 -2,031 Descending FlightAware ADS-B
Fri 05:31:12 PM 44.9909 -122.6277 339° North 325 374 7,600 -1,869 Descending FlightAware ADS-B
Fri 05:31:32 PM 45.0182 -122.6427 339° North 300 345 6,800 -2,550 Descending FlightAware ADS-B
Fri 05:31:52 PM 45.0325 -122.6507 338° Northwest 262 302 5,900 -2,432 Descending FlightAware ADS-B
Fri 05:32:09 PM 45.0700 -122.6714 339° North 306 352 5,300 -2,400 Descending FlightAware ADS-B (KPFC)
Fri 05:32:32 PM 45.0979 -122.6869 339° North 372 428 4,300 -2,049 Descending FlightAware ADS-B
Fri 05:32:50 PM 45.1216 -122.7001 339° North 292 336 3,900 -1,538 Descending FlightAware ADS-B (KPFC)
Fri 05:33:11 PM 45.1436 -122.7117 340° North 316 364 3,300 -1,837 Descending FlightAware ADS-B
Fri 05:33:39 PM 45.1827 -122.7202 358° North 278 320 2,400 -1,347 Descending FlightAware ADS-B (KPFC)
Fri 05:34:00 PM 45.2070 -122.7201 358° North 278 320 2,200 -2,377 Descending FlightAware ADS-B (KPFC)
Fri 05:34:32 PM 45.2410 -122.7192 North 269 310 300 -514 Descending FlightAware ADS-B
Fri 05:34:35 PM 45.2439 -122.7191 358° North 278 320 1,900 4,000 Climbing FlightAware ADS-B (KPFC)
Fri 05:34:53 PM 45.2617 -122.7184 North 189 217 1,700 -649 Descending FlightAware ADS-B (KPFC)
Fri 05:35:12 PM 45.2714 -122.7203 352° North 285 328 1,500 -923 Descending FlightAware ADS-B
Fri 05:35:32 PM 45.2786 -122.7299 308° West 255 293 1,100 -750 Descending FlightAware ADS-B
Fri 05:35:44 PM 45.2800 -122.7500 300° West 298 343 1,100 -400 Level FlightAware ADS-B (KPFC)
Fri 05:35:47 PM 45.2802 -122.7483 81° East 223 257 1,000 -1,125 Descending FlightAware ADS-B
Fri 05:36:00 PM 45.2762 -122.7616 247° West 550 633 800 -960 Descending FlightAware ADS-B (KPFC)
Fri 05:36:12 PM 45.2708 -122.7656 207° Southwest 220 253 600 -1,000 Descending FlightAware ADS-B

Login

Don't have an account? Register now (free) for customized features, flight alerts, and more!